createdAt,value
2018-07-31T00:02:00.260Z,22.96
2018-07-31T00:04:29.066Z,22.99
2018-07-31T00:06:58.034Z,22.98
2018-07-31T00:09:26.868Z,23.01
2018-07-31T00:11:55.704Z,23.07
2018-07-31T00:14:24.524Z,23.07
2018-07-31T00:16:53.723Z,23.09
2018-07-31T00:19:22.599Z,23.13
2018-07-31T00:21:51.456Z,23.15
2018-07-31T00:24:20.283Z,23.16
2018-07-31T00:26:49.065Z,23.15
2018-07-31T00:29:17.929Z,23.14
2018-07-31T00:31:46.712Z,22.98
2018-07-31T00:34:15.504Z,22.99
2018-07-31T00:36:44.359Z,22.89
2018-07-31T00:39:13.265Z,22.85
2018-07-31T00:41:42.674Z,22.74
2018-07-31T00:44:11.776Z,22.65
2018-07-31T00:46:40.607Z,22.64
2018-07-31T00:49:09.377Z,22.55
2018-07-31T00:51:38.352Z,22.48
2018-07-31T00:54:07.154Z,22.51
2018-07-31T00:56:35.940Z,22.39
2018-07-31T00:59:04.792Z,22.33
2018-07-31T01:01:33.596Z,22.22
2018-07-31T01:04:02.383Z,22.28
2018-07-31T01:06:37.198Z,22.48
2018-07-31T01:09:09.776Z,22.30
2018-07-31T01:11:38.708Z,22.14
2018-07-31T01:14:08.364Z,22.20
2018-07-31T01:16:38.388Z,22.32
2018-07-31T01:19:07.488Z,22.38
2018-07-31T01:21:36.456Z,22.42
2018-07-31T01:24:05.419Z,22.44
2018-07-31T01:26:34.243Z,22.43
2018-07-31T01:29:03.144Z,22.32
2018-07-31T01:31:32.008Z,22.27
2018-07-31T01:34:00.893Z,22.20
2018-07-31T01:36:29.681Z,22.18
2018-07-31T01:38:58.492Z,22.23
2018-07-31T01:41:27.333Z,22.14
2018-07-31T01:43:56.460Z,22.08
2018-07-31T01:46:25.248Z,22.09
2018-07-31T01:48:54.179Z,22.11
2018-07-31T01:51:22.992Z,22.22
2018-07-31T01:53:51.759Z,22.38
2018-07-31T01:56:20.794Z,22.59
2018-07-31T01:58:49.675Z,22.72
2018-07-31T02:01:18.474Z,22.74
2018-07-31T02:03:47.308Z,22.86
2018-07-31T02:06:16.189Z,22.82
2018-07-31T02:08:44.938Z,22.70
2018-07-31T02:11:13.740Z,22.28
2018-07-31T02:13:42.558Z,22.28
2018-07-31T02:16:11.325Z,22.22
2018-07-31T02:18:40.093Z,22.16
2018-07-31T02:21:08.901Z,22.08
2018-07-31T02:23:37.736Z,22.05
2018-07-31T02:26:07.872Z,21.98
2018-07-31T02:28:36.688Z,22.07
2018-07-31T02:31:05.501Z,22.11
2018-07-31T02:33:34.350Z,22.14
2018-07-31T02:36:03.265Z,22.09
2018-07-31T02:38:32.069Z,22.06
2018-07-31T02:41:00.872Z,22.08
2018-07-31T02:43:29.678Z,22.04
2018-07-31T02:45:58.500Z,21.98
2018-07-31T02:48:27.340Z,21.96
2018-07-31T02:50:56.144Z,22.01
2018-07-31T02:53:24.945Z,22.01
2018-07-31T02:55:53.783Z,22.13
2018-07-31T02:58:22.635Z,22.22
2018-07-31T03:00:51.430Z,22.28
2018-07-31T03:03:21.657Z,22.48
2018-07-31T03:05:50.457Z,22.54
2018-07-31T03:08:19.293Z,22.67
2018-07-31T03:10:48.140Z,22.79
2018-07-31T03:13:16.984Z,22.82
2018-07-31T03:15:45.778Z,22.95
2018-07-31T03:18:14.557Z,22.77
2018-07-31T03:20:43.461Z,22.63
2018-07-31T03:23:12.323Z,22.56
2018-07-31T03:25:41.152Z,22.58
2018-07-31T03:28:10.059Z,22.49
2018-07-31T03:30:38.894Z,22.31
2018-07-31T03:33:07.711Z,22.07
2018-07-31T03:35:36.579Z,22.04
2018-07-31T03:38:05.421Z,21.96
2018-07-31T03:40:34.317Z,21.98
2018-07-31T03:43:03.127Z,22.05
2018-07-31T03:45:31.920Z,22.07
2018-07-31T03:48:00.752Z,22.25
2018-07-31T03:50:29.630Z,22.43
2018-07-31T03:52:58.479Z,22.51
2018-07-31T03:55:27.330Z,22.40
2018-07-31T03:57:56.233Z,22.41
2018-07-31T04:00:25.085Z,22.55
2018-07-31T04:02:54.031Z,22.70
2018-07-31T04:05:22.888Z,22.75
2018-07-31T04:07:51.700Z,23.00
2018-07-31T04:10:21.743Z,23.39
2018-07-31T04:12:50.544Z,23.70
2018-07-31T04:15:19.307Z,23.93
2018-07-31T04:17:53.716Z,24.14
2018-07-31T04:20:22.543Z,24.30
2018-07-31T04:22:51.468Z,24.44
2018-07-31T04:25:20.279Z,24.70
2018-07-31T04:27:49.154Z,24.75
2018-07-31T04:30:17.940Z,24.93
2018-07-31T04:32:46.731Z,24.60
2018-07-31T04:35:15.611Z,24.52
2018-07-31T04:37:44.380Z,24.28
2018-07-31T04:40:13.161Z,24.30
2018-07-31T04:42:42.136Z,24.16
2018-07-31T04:45:11.845Z,24.13
2018-07-31T04:47:40.946Z,24.35
2018-07-31T04:50:11.988Z,24.63
2018-07-31T04:52:40.832Z,24.73
2018-07-31T04:55:09.598Z,24.91
2018-07-31T04:57:38.402Z,24.81
2018-07-31T05:00:08.705Z,24.80
2018-07-31T05:02:38.333Z,24.70
2018-07-31T05:05:07.389Z,25.15
2018-07-31T05:07:38.684Z,25.16
2018-07-31T05:10:11.374Z,25.05
2018-07-31T05:12:40.805Z,25.31
2018-07-31T05:15:09.800Z,25.15
2018-07-31T05:17:39.984Z,24.89
2018-07-31T05:20:10.259Z,25.21
2018-07-31T05:22:39.806Z,25.58
2018-07-31T05:25:08.766Z,25.40
2018-07-31T05:27:37.580Z,25.37
2018-07-31T05:30:08.275Z,25.62
2018-07-31T05:32:37.153Z,25.86
2018-07-31T05:35:06.852Z,26.20
2018-07-31T05:37:35.963Z,26.47
2018-07-31T05:40:05.176Z,26.73
2018-07-31T05:42:33.930Z,26.93
2018-07-31T05:45:02.756Z,26.96
2018-07-31T05:47:31.603Z,27.12
2018-07-31T05:50:00.404Z,27.26
2018-07-31T05:52:29.197Z,27.13
2018-07-31T05:54:57.970Z,27.31
2018-07-31T05:57:26.835Z,27.80
2018-07-31T05:59:55.764Z,27.60
2018-07-31T06:02:24.577Z,27.43
2018-07-31T06:04:53.453Z,26.94
2018-07-31T06:07:22.467Z,27.16
2018-07-31T06:09:51.316Z,27.40
2018-07-31T06:12:20.132Z,27.74
2018-07-31T06:14:48.908Z,27.75
2018-07-31T06:17:17.681Z,27.86
2018-07-31T06:19:48.161Z,28.24
2018-07-31T06:22:17.103Z,28.59
2018-07-31T06:24:45.942Z,28.63
2018-07-31T06:27:14.784Z,28.60
2018-07-31T06:29:43.730Z,29.06
2018-07-31T06:32:12.860Z,28.93
2018-07-31T06:34:41.614Z,28.87
2018-07-31T06:37:10.478Z,28.82
2018-07-31T06:39:39.359Z,28.28
2018-07-31T06:42:08.294Z,28.82
2018-07-31T06:44:37.100Z,29.26
2018-07-31T06:47:05.978Z,29.17
2018-07-31T06:49:34.942Z,29.24
2018-07-31T06:52:03.903Z,28.50
2018-07-31T06:54:32.757Z,28.69
2018-07-31T06:57:01.597Z,28.58
2018-07-31T06:59:31.673Z,28.53
2018-07-31T07:02:00.569Z,28.16
2018-07-31T07:04:29.322Z,27.93
2018-07-31T07:06:58.185Z,27.86
2018-07-31T07:09:26.964Z,26.98
2018-07-31T07:11:55.760Z,27.08
2018-07-31T07:14:24.597Z,27.76
2018-07-31T07:16:53.415Z,28.13
2018-07-31T07:19:22.183Z,27.98
2018-07-31T07:21:51.222Z,27.19
2018-07-31T07:24:20.064Z,27.24
2018-07-31T07:26:48.825Z,27.00
2018-07-31T07:29:17.753Z,27.31
2018-07-31T07:31:46.539Z,27.50
2018-07-31T07:34:15.342Z,27.49
2018-07-31T07:36:44.167Z,27.71
2018-07-31T07:39:13.624Z,27.80
2018-07-31T07:41:42.527Z,27.80
2018-07-31T07:44:12.011Z,27.74
2018-07-31T07:46:40.808Z,27.88
2018-07-31T07:49:09.801Z,28.08
2018-07-31T07:51:38.734Z,28.35
2018-07-31T07:54:07.906Z,28.67
2018-07-31T07:56:36.638Z,29.03
2018-07-31T07:59:05.477Z,29.11
2018-07-31T08:01:34.264Z,28.82
2018-07-31T08:04:03.241Z,29.07
2018-07-31T08:06:32.109Z,29.22
2018-07-31T08:09:00.896Z,29.28
2018-07-31T08:11:29.676Z,29.23
2018-07-31T08:13:58.508Z,29.20
2018-07-31T08:16:27.416Z,29.17
2018-07-31T08:18:56.237Z,29.37
2018-07-31T08:21:26.547Z,29.46
2018-07-31T08:23:56.676Z,29.72
2018-07-31T08:26:25.521Z,29.91
2018-07-31T08:28:54.366Z,29.71
2018-07-31T08:33:04.547Z,29.88
2018-07-31T08:35:33.363Z,29.86
2018-07-31T08:38:02.156Z,30.05
2018-07-31T08:40:31.090Z,30.27
2018-07-31T08:42:59.984Z,30.69
2018-07-31T08:45:28.826Z,30.75
2018-07-31T08:47:57.758Z,30.81
2018-07-31T08:50:26.539Z,29.84
2018-07-31T08:52:55.315Z,30.10
2018-07-31T08:55:24.184Z,30.21
2018-07-31T08:57:52.956Z,30.58
2018-07-31T09:00:21.760Z,30.61
2018-07-31T09:02:50.664Z,30.34
2018-07-31T09:18:20.272Z,30.61
2018-07-31T09:20:49.099Z,30.30
2018-07-31T09:23:17.898Z,30.07
2018-07-31T09:25:47.774Z,29.61
2018-07-31T09:28:18.768Z,28.76
2018-07-31T09:30:52.766Z,29.73
2018-07-31T09:33:22.986Z,30.55
2018-07-31T09:35:51.804Z,30.17
2018-07-31T09:38:20.736Z,30.84
2018-07-31T09:40:49.611Z,30.45
2018-07-31T09:43:18.491Z,30.19
2018-07-31T09:45:47.304Z,30.48
2018-07-31T09:48:16.209Z,29.77
2018-07-31T09:50:45.094Z,30.00
2018-07-31T09:53:14.100Z,30.22
2018-07-31T09:55:43.083Z,29.91
2018-07-31T09:58:11.961Z,30.06
2018-07-31T10:00:45.965Z,28.50
2018-07-31T10:03:14.845Z,29.89
2018-07-31T10:05:43.716Z,30.20
2018-07-31T10:08:16.760Z,30.46
2018-07-31T10:10:45.628Z,31.07
2018-07-31T10:13:14.459Z,31.13
2018-07-31T10:15:43.334Z,30.42
2018-07-31T10:18:12.258Z,30.75
2018-07-31T10:20:41.020Z,30.40
2018-07-31T10:23:09.881Z,30.28
2018-07-31T10:25:40.363Z,30.80
2018-07-31T10:28:09.711Z,30.47
2018-07-31T10:30:45.033Z,31.63
2018-07-31T10:33:13.793Z,31.57
2018-07-31T10:35:42.615Z,32.06
2018-07-31T10:38:11.468Z,32.24
2018-07-31T10:40:40.539Z,32.22
2018-07-31T10:43:09.378Z,30.13
2018-07-31T10:45:38.239Z,31.37
2018-07-31T10:48:07.223Z,32.03
2018-07-31T10:50:36.186Z,32.65
2018-07-31T10:53:05.132Z,33.07
2018-07-31T10:55:33.968Z,33.70
2018-07-31T10:58:02.856Z,33.72
2018-07-31T11:00:32.997Z,33.30
2018-07-31T11:03:01.782Z,33.22
2018-07-31T11:05:30.572Z,33.10
2018-07-31T11:07:59.425Z,33.16
2018-07-31T11:10:28.274Z,33.16
2018-07-31T11:12:57.053Z,33.33
2018-07-31T11:15:25.899Z,33.35
2018-07-31T11:17:54.709Z,33.65
2018-07-31T11:20:23.581Z,33.84
2018-07-31T11:22:52.601Z,33.63
2018-07-31T11:25:22.849Z,33.22
2018-07-31T11:27:51.704Z,33.17
2018-07-31T11:30:20.664Z,33.37
2018-07-31T11:32:49.550Z,33.56
2018-07-31T11:35:18.389Z,33.97
2018-07-31T11:37:47.201Z,34.44
2018-07-31T11:40:16.086Z,34.29
2018-07-31T11:42:44.871Z,34.28
2018-07-31T11:45:13.643Z,34.69
2018-07-31T11:47:42.471Z,34.36
2018-07-31T11:50:11.338Z,34.39
2018-07-31T11:52:40.196Z,34.23
2018-07-31T11:55:09.067Z,34.24
2018-07-31T11:57:37.859Z,33.71
2018-07-31T12:00:09.267Z,33.23
2018-07-31T12:02:39.479Z,33.62
2018-07-31T12:05:08.596Z,33.54
2018-07-31T12:07:37.435Z,33.40
2018-07-31T12:10:06.768Z,33.17
2018-07-31T12:12:35.606Z,33.20
2018-07-31T12:15:04.927Z,33.33
2018-07-31T12:17:33.717Z,33.19
2018-07-31T12:20:02.531Z,33.71
2018-07-31T12:22:31.304Z,33.85
2018-07-31T12:25:00.055Z,34.26
2018-07-31T12:27:28.827Z,34.49
2018-07-31T12:29:57.663Z,35.60
2018-07-31T12:32:26.466Z,36.51
2018-07-31T12:34:55.236Z,36.62
2018-07-31T12:37:24.106Z,35.74
2018-07-31T12:39:52.881Z,36.65
2018-07-31T12:42:23.192Z,37.02
2018-07-31T12:44:52.121Z,37.55
2018-07-31T12:47:21.054Z,37.92
2018-07-31T12:49:49.942Z,37.20
2018-07-31T12:52:19.012Z,37.44
2018-07-31T12:54:47.804Z,37.15
2018-07-31T12:57:16.604Z,38.09
2018-07-31T12:59:45.448Z,38.09
2018-07-31T13:02:14.364Z,38.61
2018-07-31T13:04:43.153Z,38.38
2018-07-31T13:07:12.004Z,37.88
2018-07-31T13:09:40.873Z,37.62
2018-07-31T13:12:09.794Z,38.05
2018-07-31T13:14:38.714Z,38.45
2018-07-31T13:17:07.550Z,38.71
2018-07-31T13:19:36.335Z,39.07
2018-07-31T13:22:05.247Z,39.90
2018-07-31T13:24:34.033Z,40.16
2018-07-31T13:27:02.844Z,39.88
2018-07-31T13:29:31.809Z,39.00
2018-07-31T13:32:00.663Z,39.53
2018-07-31T13:34:29.420Z,39.99
2018-07-31T13:36:58.267Z,40.22
2018-07-31T13:39:27.074Z,39.75
2018-07-31T13:41:55.846Z,39.76
2018-07-31T13:44:24.688Z,40.38
2018-07-31T13:46:53.455Z,40.57
2018-07-31T13:49:22.302Z,40.56
2018-07-31T14:05:50.416Z,40.00
2018-07-31T14:20:15.739Z,39.42
2018-07-31T14:22:44.557Z,39.02
2018-07-31T14:25:13.384Z,38.31
2018-07-31T14:27:42.266Z,39.39
2018-07-31T14:30:11.112Z,38.91
2018-07-31T14:32:39.892Z,38.03
2018-07-31T14:35:08.818Z,38.11
2018-07-31T14:37:37.710Z,38.00
2018-07-31T14:40:07.965Z,37.29
2018-07-31T14:42:36.933Z,36.73
2018-07-31T14:45:06.032Z,36.32
2018-07-31T14:47:36.150Z,35.89
2018-07-31T14:50:05.288Z,35.29
2018-07-31T14:52:34.051Z,34.90
2018-07-31T14:55:02.883Z,33.95
2018-07-31T14:57:31.662Z,33.56
2018-07-31T15:00:00.527Z,32.83
2018-07-31T15:02:29.363Z,32.69
2018-07-31T15:04:59.777Z,32.43
2018-07-31T15:07:28.569Z,32.26
2018-07-31T15:09:57.528Z,31.92
2018-07-31T15:12:26.364Z,31.57
2018-07-31T15:14:55.157Z,31.31
2018-07-31T15:17:23.936Z,31.28
2018-07-31T15:19:52.784Z,31.33
2018-07-31T15:22:21.707Z,31.60
2018-07-31T15:24:50.497Z,31.47
2018-07-31T15:27:19.524Z,31.56
2018-07-31T15:29:48.404Z,31.63
2018-07-31T15:32:17.180Z,31.50
2018-07-31T15:34:45.977Z,31.63
2018-07-31T15:37:14.860Z,31.61
2018-07-31T15:39:43.657Z,32.21
2018-07-31T15:42:12.477Z,32.57
2018-07-31T15:44:41.314Z,33.07
2018-07-31T15:47:10.187Z,33.60
2018-07-31T15:49:40.433Z,34.38
2018-07-31T15:52:09.202Z,35.35
2018-07-31T15:54:37.971Z,36.08
2018-07-31T15:57:06.810Z,36.62
2018-07-31T15:59:35.700Z,36.89
2018-07-31T16:02:04.553Z,37.13
2018-07-31T16:04:34.778Z,37.06
2018-07-31T16:07:03.560Z,37.06
2018-07-31T16:09:32.365Z,36.80
2018-07-31T16:12:01.209Z,36.33
2018-07-31T16:14:30.053Z,37.06
2018-07-31T16:16:59.080Z,36.76
2018-07-31T16:19:27.867Z,36.55
2018-07-31T16:21:56.692Z,35.63
2018-07-31T16:24:26.816Z,35.56
2018-07-31T16:26:55.641Z,35.33
2018-07-31T16:29:24.429Z,35.32
2018-07-31T16:31:53.540Z,34.75
2018-07-31T16:34:22.317Z,34.68
2018-07-31T16:36:51.151Z,35.14
2018-07-31T16:39:20.021Z,35.19
2018-07-31T16:41:50.143Z,34.62
2018-07-31T16:44:18.915Z,34.19
2018-07-31T16:46:47.707Z,34.21
2018-07-31T16:49:16.524Z,34.41
2018-07-31T16:51:45.312Z,34.35
2018-07-31T16:54:14.182Z,34.28
2018-07-31T16:56:44.316Z,34.31
2018-07-31T16:59:13.096Z,33.89
2018-07-31T17:01:41.968Z,32.71
2018-07-31T17:04:10.795Z,32.12
2018-07-31T17:06:39.597Z,31.61
2018-07-31T17:09:08.662Z,31.29
2018-07-31T17:11:38.913Z,30.93
2018-07-31T17:14:07.788Z,30.81
2018-07-31T17:16:36.564Z,30.28
2018-07-31T17:19:05.444Z,30.14
2018-07-31T17:21:34.296Z,29.95
2018-07-31T17:24:03.153Z,29.70
2018-07-31T17:26:32.036Z,29.57
2018-07-31T17:29:01.201Z,29.31
2018-07-31T17:31:30.000Z,28.90
2018-07-31T17:34:00.172Z,28.65
2018-07-31T17:36:29.059Z,28.54
2018-07-31T17:38:59.202Z,28.45
2018-07-31T17:41:27.999Z,28.33
2018-07-31T17:43:56.992Z,28.16
2018-07-31T17:46:25.797Z,28.26
2018-07-31T17:48:55.048Z,28.13
2018-07-31T17:51:23.928Z,28.04
2018-07-31T17:53:52.710Z,28.04
2018-07-31T17:56:21.483Z,28.05
2018-07-31T17:58:50.502Z,27.98
2018-07-31T18:01:19.301Z,27.81
2018-07-31T18:03:48.083Z,27.90
2018-07-31T18:06:16.904Z,27.90
2018-07-31T18:08:45.675Z,27.73
2018-07-31T18:11:14.452Z,27.69
2018-07-31T18:13:43.300Z,27.61
2018-07-31T18:16:12.100Z,27.61
2018-07-31T18:18:40.876Z,27.60
2018-07-31T18:21:09.719Z,27.58
2018-07-31T18:23:38.867Z,27.55
2018-07-31T18:26:07.640Z,27.56
2018-07-31T18:28:36.512Z,27.50
2018-07-31T18:31:05.334Z,27.45
2018-07-31T18:33:34.179Z,27.45
2018-07-31T18:36:04.527Z,27.45
2018-07-31T18:38:33.488Z,27.50
2018-07-31T18:41:02.328Z,27.42
2018-07-31T18:43:31.152Z,27.44
2018-07-31T18:46:00.039Z,27.45
2018-07-31T18:48:28.871Z,27.42
2018-07-31T18:50:57.770Z,27.44
2018-07-31T18:53:28.130Z,27.45
2018-07-31T18:55:56.916Z,27.44
2018-07-31T18:58:25.872Z,27.37
2018-07-31T19:00:55.227Z,27.31
2018-07-31T19:03:24.274Z,27.29
2018-07-31T19:05:54.327Z,27.19
2018-07-31T19:08:23.267Z,27.27
2018-07-31T19:10:52.106Z,27.24
2018-07-31T19:13:20.981Z,27.24
2018-07-31T19:15:49.787Z,27.21
2018-07-31T19:18:18.580Z,27.17
2018-07-31T19:20:47.610Z,26.92
2018-07-31T19:23:16.419Z,26.76
2018-07-31T19:25:45.295Z,26.65
2018-07-31T19:28:14.307Z,26.63
2018-07-31T19:30:43.182Z,26.50
2018-07-31T19:33:12.067Z,26.53
2018-07-31T19:35:42.332Z,26.60
2018-07-31T19:38:11.133Z,26.59
2018-07-31T19:40:40.021Z,26.61
2018-07-31T19:43:10.373Z,26.65
2018-07-31T19:45:39.318Z,26.68
2018-07-31T19:48:15.071Z,26.60
2018-07-31T19:50:44.011Z,26.30
2018-07-31T19:53:12.945Z,25.98
2018-07-31T19:55:41.803Z,25.35
2018-07-31T19:58:11.875Z,25.13
2018-07-31T20:00:40.716Z,25.10
2018-07-31T20:03:09.588Z,25.19
2018-07-31T20:05:38.479Z,25.27
2018-07-31T20:08:07.356Z,25.56
2018-07-31T20:10:41.770Z,25.55
2018-07-31T20:13:13.190Z,25.67
2018-07-31T20:15:44.325Z,25.85
2018-07-31T20:18:14.448Z,25.96
2018-07-31T20:20:46.911Z,25.58
2018-07-31T20:23:20.230Z,24.98
2018-07-31T20:25:54.275Z,24.99
2018-07-31T20:28:25.939Z,25.05
2018-07-31T20:30:55.464Z,24.89
2018-07-31T20:33:28.767Z,25.03
2018-07-31T20:36:00.746Z,24.99
2018-07-31T20:38:34.378Z,24.80
2018-07-31T20:41:08.075Z,24.82
2018-07-31T20:43:37.686Z,24.79
2018-07-31T20:46:07.814Z,24.77
2018-07-31T20:48:40.386Z,24.90
2018-07-31T20:51:10.265Z,24.80
2018-07-31T20:53:44.107Z,24.86
2018-07-31T20:56:15.061Z,24.83
2018-07-31T20:58:49.535Z,24.85
2018-07-31T21:01:22.230Z,24.62
2018-07-31T21:03:52.862Z,24.79
2018-07-31T21:06:26.290Z,24.85
2018-07-31T21:08:58.816Z,24.88
2018-07-31T21:11:30.651Z,24.67
2018-07-31T21:14:05.858Z,24.63
2018-07-31T21:16:39.992Z,24.63
2018-07-31T21:19:13.006Z,24.72
2018-07-31T21:21:46.240Z,24.71
2018-07-31T21:24:17.399Z,24.76
2018-07-31T21:26:51.205Z,24.77
2018-07-31T21:29:23.161Z,24.80
2018-07-31T21:31:52.735Z,24.86
2018-07-31T21:34:27.041Z,24.92
2018-07-31T21:36:57.242Z,24.98
2018-07-31T21:39:28.214Z,25.16
2018-07-31T21:42:00.719Z,25.19
2018-07-31T21:44:33.295Z,24.86
2018-07-31T21:47:04.808Z,24.81
2018-07-31T21:49:36.715Z,24.92
2018-07-31T21:52:10.473Z,24.73
2018-07-31T21:54:42.732Z,24.65
2018-07-31T21:57:14.407Z,24.58
2018-07-31T21:59:48.969Z,24.47
2018-07-31T22:02:20.602Z,24.27
2018-07-31T22:04:51.758Z,24.35
2018-07-31T22:07:22.875Z,24.36
2018-07-31T22:09:56.007Z,24.35
2018-07-31T22:12:27.277Z,24.37
2018-07-31T22:14:57.193Z,24.44
2018-07-31T22:17:26.838Z,24.56
2018-07-31T22:19:56.970Z,24.58
2018-07-31T22:22:30.076Z,24.63
2018-07-31T22:25:06.010Z,24.59
2018-07-31T22:27:37.939Z,24.64
2018-07-31T22:30:09.862Z,24.65
2018-07-31T22:32:41.218Z,24.81
2018-07-31T22:35:14.499Z,24.92
2018-07-31T22:37:47.755Z,25.03
2018-07-31T22:40:18.683Z,25.06
2018-07-31T22:42:49.810Z,25.29
2018-07-31T22:45:21.323Z,25.42
2018-07-31T22:47:51.880Z,25.50
2018-07-31T22:50:28.109Z,25.27
2018-07-31T22:52:58.293Z,25.11
2018-07-31T22:55:30.718Z,24.98
2018-07-31T22:58:03.604Z,24.60
2018-07-31T23:00:35.769Z,24.41
2018-07-31T23:03:08.436Z,24.50
2018-07-31T23:05:42.321Z,24.59
2018-07-31T23:08:14.859Z,24.92
2018-07-31T23:10:48.511Z,24.86
2018-07-31T23:13:19.574Z,24.72
2018-07-31T23:15:50.692Z,24.69
2018-07-31T23:18:21.654Z,24.67
2018-07-31T23:20:53.821Z,24.62
2018-07-31T23:23:25.661Z,24.63
2018-07-31T23:25:56.324Z,24.67
2018-07-31T23:28:28.385Z,24.64
2018-07-31T23:30:59.513Z,24.64
2018-07-31T23:33:30.290Z,24.70
2018-07-31T23:36:08.495Z,24.38
2018-07-31T23:38:38.881Z,24.30
2018-07-31T23:41:11.948Z,24.34
2018-07-31T23:43:43.840Z,24.00
2018-07-31T23:46:14.775Z,23.91
2018-07-31T23:48:47.419Z,24.08
2018-07-31T23:51:20.783Z,24.23
2018-07-31T23:53:51.364Z,24.19
2018-07-31T23:56:23.315Z,24.09
2018-07-31T23:58:52.663Z,23.96
